Time;durP1;ratioP1;P1;durP2;ratioP2;P2;SDS_P1;SDS_P2;PMS_P1;PMS_P2;Temp;Humidity;BMP_temperature;BMP_pressure;BME280_temperature;BME280_humidity;BME280_pressure;Samples;Min_cycle;Max_cycle;Signal;HPM_P1;HPM_P2
2023/10/30 00:00:48;;;;;;;4.10;1.77;;;;;;;;;;5072114;28;20286;-49
2023/10/30 00:03:14;;;;;;;4.17;1.57;;;;;;;;;;5071765;28;20239;-49
2023/10/30 00:05:40;;;;;;;7.30;1.73;;;;;;;;;;5071939;28;20195;-49
2023/10/30 00:08:08;;;;;;;2.97;1.27;;;;;;;;;;5071895;28;20203;-47
2023/10/30 00:10:35;;;;;;;3.97;1.30;;;;;;;;;;5071729;28;20256;-47
2023/10/30 00:13:01;;;;;;;4.33;1.60;;;;;;;;;;5071875;28;20217;-50
2023/10/30 00:15:27;;;;;;;5.20;1.90;;;;;;;;;;5071691;28;20218;-50
2023/10/30 00:17:53;;;;;;;6.47;1.70;;;;;;;;;;5071836;28;20203;-47
2023/10/30 00:20:19;;;;;;;2.83;1.40;;;;;;;;;;5071563;28;20206;-47
2023/10/30 00:22:45;;;;;;;4.10;1.60;;;;;;;;;;5071546;28;20261;-47
2023/10/30 00:25:12;;;;;;;4.77;1.77;;;;;;;;;;5071572;28;20598;-50
2023/10/30 00:27:40;;;;;;;4.67;1.60;;;;;;;;;;5071775;28;20214;-48
2023/10/30 00:30:07;;;;;;;5.50;1.57;;;;;;;;;;5071488;28;20203;-48
2023/10/30 00:32:33;;;;;;;3.73;1.60;;;;;;;;;;5071595;28;20310;-48
2023/10/30 00:34:59;;;;;;;5.50;1.73;;;;;;;;;;5071258;28;20291;-48
2023/10/30 00:37:25;;;;;;;4.57;1.60;;;;;;;;;;5071323;28;20207;-48
2023/10/30 00:39:51;;;;;;;11.27;1.90;;;;;;;;;;5071587;28;20249;-49
2023/10/30 00:42:18;;;;;;;5.87;1.60;;;;;;;;;;5071352;28;20239;-48
2023/10/30 00:44:44;;;;;;;3.93;2.17;;;;;;;;;;5071503;28;20249;-48
2023/10/30 00:47:10;;;;;;;4.97;1.70;;;;;;;;;;5070927;28;20725;-48
2023/10/30 00:49:36;;;;;;;7.63;1.93;;;;;;;;;;5071394;28;20291;-49
2023/10/30 00:52:02;;;;;;;6.50;1.60;;;;;;;;;;5071592;28;20195;-48
2023/10/30 00:54:29;;;;;;;5.77;1.80;;;;;;;;;;5071308;28;20203;-50
2023/10/30 00:56:55;;;;;;;4.43;1.60;;;;;;;;;;5071233;28;20257;-48
2023/10/30 00:59:22;;;;;;;4.97;1.87;;;;;;;;;;5070857;28;20562;-49
2023/10/30 01:01:48;;;;;;;3.30;1.83;;;;;;;;;;5069741;28;20211;-50
2023/10/30 01:04:14;;;;;;;6.20;1.60;;;;;;;;;;5069774;28;20578;-49
2023/10/30 01:06:40;;;;;;;3.67;1.50;;;;;;;;;;5069581;28;20248;-49
2023/10/30 01:09:06;;;;;;;3.67;1.60;;;;;;;;;;5070526;28;20200;-49
2023/10/30 01:11:32;;;;;;;5.57;1.77;;;;;;;;;;5070973;28;20261;-49
2023/10/30 01:13:58;;;;;;;4.87;1.73;;;;;;;;;;5071432;28;20202;-49
2023/10/30 01:16:26;;;;;;;5.17;1.93;;;;;;;;;;5071009;28;20211;-49
2023/10/30 01:18:52;;;;;;;4.00;1.70;;;;;;;;;;5070995;28;20580;-49
2023/10/30 01:21:20;;;;;;;4.33;1.90;;;;;;;;;;5067816;28;20199;-50
2023/10/30 01:23:46;;;;;;;3.83;1.40;;;;;;;;;;5071161;28;20241;-49
2023/10/30 01:26:12;;;;;;;5.23;1.53;;;;;;;;;;5071091;28;20207;-49
2023/10/30 01:28:38;;;;;;;4.23;1.70;;;;;;;;;;5071251;28;20206;-50
2023/10/30 01:31:04;;;;;;;6.83;1.97;;;;;;;;;;5071008;28;20600;-49
2023/10/30 01:33:32;;;;;;;4.47;1.50;;;;;;;;;;5071108;28;20203;-50
2023/10/30 01:35:58;;;;;;;5.73;2.00;;;;;;;;;;5071075;28;20295;-49
2023/10/30 01:38:24;;;;;;;6.17;1.70;;;;;;;;;;5070945;28;20196;-50
2023/10/30 01:40:50;;;;;;;5.90;1.77;;;;;;;;;;5071084;28;20245;-50
2023/10/30 01:43:17;;;;;;;4.63;1.90;;;;;;;;;;5070840;28;20238;-49
2023/10/30 01:45:43;;;;;;;5.10;1.67;;;;;;;;;;5070929;28;20620;-52
2023/10/30 01:48:10;;;;;;;4.70;1.70;;;;;;;;;;5071004;28;20348;-50
2023/10/30 01:50:38;;;;;;;4.77;1.57;;;;;;;;;;5072888;28;20332;-50
2023/10/30 01:53:05;;;;;;;7.63;1.90;;;;;;;;;;5074442;28;20199;-51
2023/10/30 01:55:31;;;;;;;6.53;2.07;;;;;;;;;;5074659;28;20196;-51
2023/10/30 01:57:57;;;;;;;4.20;1.93;;;;;;;;;;5074353;28;20661;-51
2023/10/30 02:00:23;;;;;;;3.63;1.80;;;;;;;;;;5074264;28;20205;-51
2023/10/30 02:02:50;;;;;;;4.20;1.97;;;;;;;;;;5074377;28;20206;-48
2023/10/30 02:05:16;;;;;;;4.00;1.73;;;;;;;;;;5074323;28;20253;-50
2023/10/30 02:07:44;;;;;;;5.60;1.63;;;;;;;;;;5074154;28;20646;-50
2023/10/30 02:10:11;;;;;;;4.90;1.83;;;;;;;;;;5074216;28;20298;-50
2023/10/30 02:12:37;;;;;;;6.80;2.20;;;;;;;;;;5074082;28;20241;-49
2023/10/30 02:15:04;;;;;;;4.63;1.70;;;;;;;;;;5074440;28;20199;-50
2023/10/30 02:17:30;;;;;;;3.70;1.57;;;;;;;;;;5074113;28;20242;-50
2023/10/30 02:19:56;;;;;;;8.30;1.70;;;;;;;;;;5073983;28;20219;-50
2023/10/30 02:22:22;;;;;;;7.10;2.03;;;;;;;;;;5073968;28;20246;-49
2023/10/30 02:24:49;;;;;;;4.70;1.83;;;;;;;;;;5074128;28;20344;-50
2023/10/30 02:27:17;;;;;;;5.80;2.43;;;;;;;;;;5073868;28;20576;-50
2023/10/30 02:29:43;;;;;;;6.83;2.10;;;;;;;;;;5073992;28;20200;-50
2023/10/30 02:32:09;;;;;;;6.07;1.80;;;;;;;;;;5070267;28;20247;-49
2023/10/30 02:34:35;;;;;;;4.40;1.80;;;;;;;;;;5071953;28;20223;-50
2023/10/30 02:37:02;;;;;;;6.37;2.33;;;;;;;;;;5073898;28;20717;-50
2023/10/30 02:39:32;;;;;;;6.60;2.07;;;;;;;;;;5070146;28;20561;-50
2023/10/30 02:41:58;;;;;;;4.47;2.17;;;;;;;;;;5070031;28;20597;-50
2023/10/30 02:44:28;;;;;;;5.23;1.70;;;;;;;;;;5073476;28;20218;-50
2023/10/30 02:46:54;;;;;;;4.47;1.80;;;;;;;;;;5071793;28;20219;-50
2023/10/30 02:49:20;;;;;;;4.90;1.80;;;;;;;;;;5071605;28;20605;-50
2023/10/30 02:51:46;;;;;;;5.20;1.97;;;;;;;;;;5070220;28;20241;-50
2023/10/30 02:54:12;;;;;;;7.43;1.83;;;;;;;;;;5066541;28;20188;-50
2023/10/30 02:56:38;;;;;;;6.57;1.83;;;;;;;;;;5071658;28;20203;-48
2023/10/30 02:59:04;;;;;;;5.80;1.80;;;;;;;;;;5071567;28;20291;-51
2023/10/30 03:01:33;;;;;;;5.47;1.80;;;;;;;;;;5069795;28;20199;-48
2023/10/30 03:04:00;;;;;;;6.23;2.03;;;;;;;;;;5073160;28;20234;-48
2023/10/30 03:06:26;;;;;;;6.80;1.57;;;;;;;;;;5071219;28;20554;-48
2023/10/30 03:08:52;;;;;;;6.53;2.07;;;;;;;;;;5072999;28;20567;-49
2023/10/30 03:11:18;;;;;;;8.17;2.20;;;;;;;;;;5066085;28;20715;-48
2023/10/30 03:13:44;;;;;;;6.30;1.90;;;;;;;;;;5067908;28;20195;-48
2023/10/30 03:16:11;;;;;;;4.33;2.20;;;;;;;;;;5071064;28;20249;-48
2023/10/30 03:18:38;;;;;;;8.80;2.57;;;;;;;;;;5071087;28;20511;-48
2023/10/30 03:21:04;;;;;;;7.40;2.07;;;;;;;;;;5067721;28;20199;-49
2023/10/30 03:23:30;;;;;;;6.97;1.73;;;;;;;;;;5067751;28;20231;-51
2023/10/30 03:25:57;;;;;;;4.70;1.53;;;;;;;;;;5067597;28;20207;-48
2023/10/30 03:28:23;;;;;;;6.13;1.93;;;;;;;;;;5069237;28;20279;-48
2023/10/30 03:30:49;;;;;;;3.17;1.70;;;;;;;;;;5064072;28;20282;-50
2023/10/30 03:33:15;;;;;;;4.80;2.00;;;;;;;;;;5069201;28;20278;-51
2023/10/30 03:35:43;;;;;;;5.73;1.90;;;;;;;;;;5069249;28;20619;-49
2023/10/30 03:38:08;;;;;;;5.17;1.77;;;;;;;;;;5067504;28;20294;-50
2023/10/30 03:40:34;;;;;;;8.63;2.23;;;;;;;;;;5067274;28;20295;-48
2023/10/30 03:43:01;;;;;;;7.73;1.90;;;;;;;;;;5067223;28;20235;-48
2023/10/30 03:45:27;;;;;;;5.17;1.87;;;;;;;;;;5063792;28;20738;-48
2023/10/30 03:47:53;;;;;;;7.10;1.90;;;;;;;;;;5063727;28;20632;-48
2023/10/30 03:50:19;;;;;;;6.97;2.10;;;;;;;;;;5068981;28;20249;-48
2023/10/30 03:52:47;;;;;;;4.47;1.90;;;;;;;;;;5065556;28;20207;-48
2023/10/30 03:55:13;;;;;;;7.90;2.30;;;;;;;;;;5063659;28;20253;-48
2023/10/30 03:57:41;;;;;;;3.87;1.77;;;;;;;;;;5066987;28;20203;-50
2023/10/30 04:00:08;;;;;;;7.33;1.83;;;;;;;;;;5066867;28;20234;-50
2023/10/30 04:02:34;;;;;;;6.53;2.10;;;;;;;;;;5063483;28;20206;-49
2023/10/30 04:05:00;;;;;;;4.80;1.80;;;;;;;;;;5061829;28;20230;-49
2023/10/30 04:07:26;;;;;;;5.83;2.57;;;;;;;;;;5065065;28;20274;-50
2023/10/30 04:09:54;;;;;;;6.63;2.30;;;;;;;;;;5063481;28;20561;-49
2023/10/30 04:12:20;;;;;;;8.60;1.93;;;;;;;;;;5064705;28;20252;-49
2023/10/30 04:14:46;;;;;;;5.87;2.20;;;;;;;;;;5065259;28;20245;-49
2023/10/30 04:17:12;;;;;;;6.27;1.70;;;;;;;;;;5061606;28;20685;-49
2023/10/30 04:19:38;;;;;;;8.63;1.93;;;;;;;;;;5065506;28;20230;-50
2023/10/30 04:22:04;;;;;;;3.23;1.53;;;;;;;;;;5065103;28;20223;-49
2023/10/30 04:24:32;;;;;;;6.73;2.23;;;;;;;;;;5066685;28;20314;-49
2023/10/30 04:26:59;;;;;;;9.63;2.57;;;;;;;;;;5065795;28;20200;-50
2023/10/30 04:29:26;;;;;;;5.10;1.60;;;;;;;;;;5063150;28;20198;-49
2023/10/30 04:31:52;;;;;;;5.00;2.20;;;;;;;;;;5063206;28;20265;-50
2023/10/30 04:34:19;;;;;;;6.53;1.77;;;;;;;;;;5063098;28;20202;-50
2023/10/30 04:36:45;;;;;;;6.73;1.90;;;;;;;;;;5063419;28;20552;-49
2023/10/30 04:39:13;;;;;;;6.23;2.03;;;;;;;;;;5061211;28;20685;-49
2023/10/30 04:41:39;;;;;;;4.87;1.70;;;;;;;;;;5064702;28;20264;-50
2023/10/30 04:44:06;;;;;;;4.40;1.70;;;;;;;;;;5062989;28;20254;-49
2023/10/30 04:46:32;;;;;;;6.47;2.00;;;;;;;;;;5063088;28;20203;-49
2023/10/30 04:48:58;;;;;;;7.17;1.80;;;;;;;;;;5064700;28;20192;-49
2023/10/30 04:51:25;;;;;;;5.10;1.70;;;;;;;;;;5064756;28;20195;-50
2023/10/30 04:53:53;;;;;;;7.07;2.03;;;;;;;;;;5062962;28;20191;-49
2023/10/30 04:56:19;;;;;;;5.77;2.47;;;;;;;;;;5064557;28;20317;-51
2023/10/30 04:58:45;;;;;;;6.53;2.00;;;;;;;;;;5061379;28;20229;-49
2023/10/30 05:01:13;;;;;;;3.40;1.63;;;;;;;;;;5059423;28;20226;-49
2023/10/30 05:03:39;;;;;;;5.87;1.67;;;;;;;;;;5062739;28;20223;-49
2023/10/30 05:06:06;;;;;;;6.27;2.97;;;;;;;;;;5064665;28;20609;-49
2023/10/30 05:08:32;;;;;;;8.40;2.10;;;;;;;;;;5064514;28;20261;-49
2023/10/30 05:10:59;;;;;;;7.53;2.10;;;;;;;;;;5062972;28;20207;-49
2023/10/30 05:13:25;;;;;;;4.07;1.53;;;;;;;;;;5062756;28;20203;-49
2023/10/30 05:15:51;;;;;;;6.33;1.83;;;;;;;;;;5062645;28;20203;-49
2023/10/30 05:18:22;;;;;;;5.53;1.90;;;;;;;;;;5062845;28;20196;-49
2023/10/30 05:20:48;;;;;;;9.27;2.87;;;;;;;;;;5064559;28;20211;-49
2023/10/30 05:23:14;;;;;;;8.37;3.27;;;;;;;;;;5064283;28;20262;-50
2023/10/30 05:25:40;;;;;;;8.20;2.13;;;;;;;;;;5064868;28;20227;-49
2023/10/30 05:28:06;;;;;;;8.10;2.60;;;;;;;;;;5064903;28;20245;-49
2023/10/30 05:30:33;;;;;;;8.83;2.60;;;;;;;;;;5064720;28;20199;-48
2023/10/30 05:32:59;;;;;;;9.57;2.40;;;;;;;;;;5068059;28;20237;-50
2023/10/30 05:35:27;;;;;;;7.13;2.43;;;;;;;;;;5062688;28;20733;-50
2023/10/30 05:37:53;;;;;;;5.50;2.00;;;;;;;;;;5064646;28;20276;-49
2023/10/30 05:40:21;;;;;;;4.90;2.07;;;;;;;;;;5069643;28;20200;-50
2023/10/30 05:42:47;;;;;;;7.40;2.30;;;;;;;;;;5074768;28;20263;-49
2023/10/30 05:45:13;;;;;;;8.70;2.30;;;;;;;;;;5074573;28;20253;-50
2023/10/30 05:47:39;;;;;;;5.10;2.20;;;;;;;;;;5074502;28;20212;-50
2023/10/30 05:50:06;;;;;;;8.20;2.20;;;;;;;;;;5074598;28;20200;-49
2023/10/30 05:52:33;;;;;;;7.63;2.30;;;;;;;;;;5074635;28;20225;-50
2023/10/30 05:54:59;;;;;;;4.30;1.50;;;;;;;;;;5074652;28;20199;-49
2023/10/30 05:57:25;;;;;;;8.27;2.47;;;;;;;;;;5074390;28;20673;-50
2023/10/30 05:59:51;;;;;;;3.93;2.40;;;;;;;;;;5074465;28;20207;-50
2023/10/30 06:02:17;;;;;;;7.30;2.37;;;;;;;;;;5074361;28;20626;-50
2023/10/30 06:04:43;;;;;;;9.20;2.37;;;;;;;;;;5074105;28;20238;-49
2023/10/30 06:07:10;;;;;;;7.50;2.27;;;;;;;;;;5074138;28;20204;-49
2023/10/30 06:09:37;;;;;;;7.90;3.30;;;;;;;;;;5073983;28;20294;-50
2023/10/30 06:12:03;;;;;;;8.87;2.63;;;;;;;;;;5074264;28;20204;-50
2023/10/30 06:14:29;;;;;;;7.53;2.53;;;;;;;;;;5074105;28;20240;-50
2023/10/30 06:16:55;;;;;;;5.33;2.20;;;;;;;;;;5074088;28;20234;-50
2023/10/30 06:19:21;;;;;;;8.67;2.73;;;;;;;;;;5073881;28;20251;-49
2023/10/30 06:21:48;;;;;;;7.53;2.80;;;;;;;;;;5074146;28;20300;-49
2023/10/30 06:24:14;;;;;;;6.17;2.63;;;;;;;;;;5073448;28;20300;-49
2023/10/30 06:26:41;;;;;;;7.63;2.40;;;;;;;;;;5073799;28;20252;-50
2023/10/30 06:29:07;;;;;;;5.07;2.10;;;;;;;;;;5073846;28;20207;-50
2023/10/30 06:31:33;;;;;;;9.10;2.93;;;;;;;;;;5073525;28;20223;-50
2023/10/30 06:33:59;;;;;;;7.73;2.43;;;;;;;;;;5073526;28;20582;-50
2023/10/30 06:36:25;;;;;;;10.03;2.10;;;;;;;;;;5073249;28;20207;-50
2023/10/30 06:38:51;;;;;;;7.20;2.57;;;;;;;;;;5073650;28;20199;-50
2023/10/30 06:41:17;;;;;;;6.30;2.30;;;;;;;;;;5073633;28;20211;-50
2023/10/30 06:43:44;;;;;;;8.63;2.47;;;;;;;;;;5073215;28;20243;-50
2023/10/30 06:46:10;;;;;;;6.17;2.60;;;;;;;;;;5073400;28;20206;-50
2023/10/30 06:48:36;;;;;;;8.33;2.10;;;;;;;;;;5073288;28;20199;-49
2023/10/30 06:51:03;;;;;;;7.10;2.17;;;;;;;;;;5073515;28;20252;-50
2023/10/30 06:53:29;;;;;;;5.57;2.00;;;;;;;;;;5073320;28;20245;-49
2023/10/30 06:55:55;;;;;;;6.13;2.10;;;;;;;;;;5073307;28;20196;-50
2023/10/30 06:58:21;;;;;;;8.20;2.40;;;;;;;;;;5073049;28;20192;-49
2023/10/30 07:00:49;;;;;;;9.93;2.77;;;;;;;;;;5073097;28;20650;-50
2023/10/30 07:03:15;;;;;;;5.77;2.10;;;;;;;;;;5072945;28;20214;-49
2023/10/30 07:05:42;;;;;;;8.70;1.90;;;;;;;;;;5073133;28;20207;-49
2023/10/30 07:08:08;;;;;;;7.77;2.50;;;;;;;;;;5072990;28;20200;-49
2023/10/30 07:10:35;;;;;;;6.87;2.00;;;;;;;;;;5072919;28;20199;-49
2023/10/30 07:13:01;;;;;;;8.17;2.27;;;;;;;;;;5073149;28;20200;-49
2023/10/30 07:15:27;;;;;;;10.23;2.60;;;;;;;;;;5072767;28;20191;-49
2023/10/30 07:17:55;;;;;;;4.50;2.00;;;;;;;;;;5072777;28;20192;-50
2023/10/30 07:20:21;;;;;;;9.60;2.93;;;;;;;;;;5072525;28;20207;-49
2023/10/30 07:22:47;;;;;;;6.20;2.50;;;;;;;;;;5072671;28;20203;-50
2023/10/30 07:25:13;;;;;;;6.37;2.30;;;;;;;;;;5072474;28;20310;-50
2023/10/30 07:27:39;;;;;;;10.67;2.30;;;;;;;;;;5072983;28;20299;-50
2023/10/30 07:30:05;;;;;;;6.60;1.97;;;;;;;;;;5072454;28;20622;-50
2023/10/30 07:32:31;;;;;;;6.33;2.17;;;;;;;;;;5072378;28;20277;-50
2023/10/30 07:34:59;;;;;;;7.60;2.40;;;;;;;;;;5072502;28;20191;-50
2023/10/30 07:37:25;;;;;;;5.30;2.40;;;;;;;;;;5072241;28;20208;-50
2023/10/30 07:39:51;;;;;;;5.03;1.60;;;;;;;;;;5072386;28;20206;-50
2023/10/30 07:42:17;;;;;;;8.93;2.33;;;;;;;;;;5072188;28;20223;-50
2023/10/30 07:44:43;;;;;;;5.07;1.80;;;;;;;;;;5072088;28;20701;-50
2023/10/30 07:47:09;;;;;;;6.23;2.00;;;;;;;;;;5071582;28;20188;-50
2023/10/30 07:49:35;;;;;;;5.20;2.17;;;;;;;;;;5071873;28;20199;-50
2023/10/30 07:52:02;;;;;;;4.20;1.90;;;;;;;;;;5072297;28;20199;-50
2023/10/30 07:54:28;;;;;;;7.90;2.70;;;;;;;;;;5071988;28;20291;-50
2023/10/30 07:56:54;;;;;;;6.10;2.47;;;;;;;;;;5072004;28;20233;-50
2023/10/30 07:59:20;;;;;;;8.07;2.70;;;;;;;;;;5071928;28;20568;-50
2023/10/30 08:01:47;;;;;;;9.67;2.70;;;;;;;;;;5072087;28;20206;-50
2023/10/30 08:04:13;;;;;;;7.10;2.80;;;;;;;;;;5071797;28;20219;-50
2023/10/30 08:06:39;;;;;;;5.87;2.30;;;;;;;;;;5071860;28;20286;-50
2023/10/30 08:09:08;;;;;;;6.50;2.23;;;;;;;;;;5071742;28;20669;-51
2023/10/30 08:11:34;;;;;;;8.80;2.10;;;;;;;;;;5071795;28;20284;-50
2023/10/30 08:14:01;;;;;;;5.10;2.00;;;;;;;;;;5071927;28;20195;-50
2023/10/30 08:16:27;;;;;;;7.47;2.43;;;;;;;;;;5071627;28;20195;-50
2023/10/30 08:18:53;;;;;;;5.20;2.10;;;;;;;;;;5071690;28;20195;-50
2023/10/30 08:21:19;;;;;;;4.53;1.80;;;;;;;;;;5071864;28;20215;-50
2023/10/30 08:23:45;;;;;;;5.77;1.90;;;;;;;;;;5072140;28;20219;-49
2023/10/30 08:26:12;;;;;;;8.57;2.10;;;;;;;;;;5071826;28;20196;-50
2023/10/30 08:28:38;;;;;;;6.13;2.00;;;;;;;;;;5071692;28;20203;-50
2023/10/30 08:31:04;;;;;;;6.70;1.77;;;;;;;;;;5071978;28;20203;-50
2023/10/30 08:33:30;;;;;;;5.07;2.10;;;;;;;;;;5071582;28;20253;-50
2023/10/30 08:35:56;;;;;;;7.50;2.10;;;;;;;;;;5071372;28;20613;-50
2023/10/30 08:38:22;;;;;;;6.17;1.93;;;;;;;;;;5071499;28;20574;-49
2023/10/30 08:40:48;;;;;;;5.00;1.83;;;;;;;;;;5071793;28;20251;-50
2023/10/30 08:43:16;;;;;;;8.17;2.33;;;;;;;;;;5071400;28;20240;-50
2023/10/30 08:45:42;;;;;;;7.80;2.40;;;;;;;;;;5071478;28;20210;-49
2023/10/30 08:48:08;;;;;;;6.77;2.10;;;;;;;;;;5071399;28;20205;-49
2023/10/30 08:50:34;;;;;;;5.90;1.73;;;;;;;;;;5071456;28;20191;-49
2023/10/30 08:53:00;;;;;;;6.50;2.10;;;;;;;;;;5071464;28;20287;-49
2023/10/30 08:55:26;;;;;;;5.30;2.00;;;;;;;;;;5071379;28;20196;-50
2023/10/30 08:57:52;;;;;;;6.37;1.87;;;;;;;;;;5071431;28;20289;-50
2023/10/30 09:00:20;;;;;;;7.73;2.17;;;;;;;;;;5074804;28;20201;-51
2023/10/30 09:02:46;;;;;;;9.83;2.23;;;;;;;;;;5075356;28;20209;-51
2023/10/30 09:05:12;;;;;;;5.87;1.80;;;;;;;;;;5075395;28;20580;-50
2023/10/30 09:07:38;;;;;;;7.90;2.10;;;;;;;;;;5075410;28;20187;-52
2023/10/30 09:10:05;;;;;;;3.87;1.63;;;;;;;;;;5075484;28;20200;-53
2023/10/30 09:12:31;;;;;;;4.60;1.80;;;;;;;;;;5075417;28;20225;-50
2023/10/30 09:14:57;;;;;;;6.60;1.83;;;;;;;;;;5075311;28;20200;-51
2023/10/30 09:17:24;;;;;;;2.57;1.70;;;;;;;;;;5074864;28;20264;-50
2023/10/30 09:19:50;;;;;;;12.37;2.27;;;;;;;;;;5075111;28;20191;-51
2023/10/30 09:22:16;;;;;;;7.73;1.90;;;;;;;;;;5075024;28;20196;-49
2023/10/30 09:24:42;;;;;;;4.27;2.17;;;;;;;;;;5075004;28;20227;-49
2023/10/30 09:27:09;;;;;;;4.77;1.70;;;;;;;;;;5074921;28;20194;-51
2023/10/30 09:29:35;;;;;;;6.00;2.20;;;;;;;;;;5074946;28;20204;-52
2023/10/30 09:32:03;;;;;;;4.97;2.00;;;;;;;;;;5074936;28;20561;-52
2023/10/30 09:34:30;;;;;;;4.30;2.00;;;;;;;;;;5074970;28;20192;-52
2023/10/30 09:36:58;;;;;;;6.00;2.30;;;;;;;;;;5074818;28;20554;-51
2023/10/30 09:39:24;;;;;;;5.40;1.70;;;;;;;;;;5074638;28;20213;-51
2023/10/30 09:41:52;;;;;;;5.00;1.77;;;;;;;;;;5074507;28;20321;-54
2023/10/30 09:44:19;;;;;;;7.23;1.57;;;;;;;;;;5068964;28;20284;-51
2023/10/30 09:46:46;;;;;;;3.70;1.70;;;;;;;;;;5074109;28;20203;-50
2023/10/30 09:49:13;;;;;;;4.27;1.80;;;;;;;;;;5074417;28;20221;-50
2023/10/30 09:51:42;;;;;;;6.33;1.80;;;;;;;;;;5074211;28;20196;-50
2023/10/30 09:54:08;;;;;;;2.93;1.57;;;;;;;;;;5074507;28;20291;-51
2023/10/30 09:56:35;;;;;;;6.13;1.97;;;;;;;;;;5074187;28;20215;-50
2023/10/30 09:59:01;;;;;;;6.43;2.30;;;;;;;;;;5074119;28;20215;-49
2023/10/30 10:01:27;;;;;;;5.10;1.87;;;;;;;;;;5073772;28;20199;-50
2023/10/30 10:03:53;;;;;;;4.10;1.63;;;;;;;;;;5070651;28;20226;-50
2023/10/30 10:06:19;;;;;;;5.40;2.17;;;;;;;;;;5074370;28;20196;-50
2023/10/30 10:08:47;;;;;;;3.37;1.70;;;;;;;;;;5074386;28;20201;-50
2023/10/30 10:11:13;;;;;;;5.47;2.20;;;;;;;;;;5073809;28;20204;-50
2023/10/30 10:13:43;;;;;;;4.77;1.70;;;;;;;;;;5074251;28;20294;-50
2023/10/30 10:16:10;;;;;;;6.17;2.00;;;;;;;;;;5074378;28;20208;-51
2023/10/30 10:18:36;;;;;;;5.10;2.00;;;;;;;;;;5074093;28;20593;-50
2023/10/30 10:21:04;;;;;;;7.10;2.00;;;;;;;;;;5074379;28;20574;-51
2023/10/30 10:23:31;;;;;;;5.40;2.43;;;;;;;;;;5074135;28;20202;-49
2023/10/30 10:25:59;;;;;;;5.37;2.00;;;;;;;;;;5074203;28;20236;-49
2023/10/30 10:28:25;;;;;;;7.70;2.43;;;;;;;;;;5074128;28;20270;-49
2023/10/30 10:30:53;;;;;;;6.33;2.20;;;;;;;;;;5074048;28;20215;-50
2023/10/30 10:33:19;;;;;;;6.30;2.20;;;;;;;;;;5072041;28;20203;-50
2023/10/30 10:35:47;;;;;;;7.67;2.13;;;;;;;;;;5073850;28;20261;-51
2023/10/30 10:38:16;;;;;;;6.67;2.03;;;;;;;;;;5073583;28;20199;-50
2023/10/30 10:40:44;;;;;;;4.17;1.93;;;;;;;;;;5073442;28;20197;-50
2023/10/30 10:43:12;;;;;;;5.13;2.00;;;;;;;;;;5073311;28;20292;-50
2023/10/30 10:45:38;;;;;;;5.43;2.00;;;;;;;;;;5073108;28;20467;-51
2023/10/30 10:48:05;;;;;;;4.43;2.00;;;;;;;;;;5073298;28;20293;-51
2023/10/30 10:50:32;;;;;;;5.67;2.00;;;;;;;;;;5073384;28;20218;-51
2023/10/30 10:52:59;;;;;;;7.07;2.30;;;;;;;;;;5073210;28;20310;-51
2023/10/30 10:55:30;;;;;;;4.57;2.00;;;;;;;;;;5073130;28;20203;-51
2023/10/30 10:57:59;;;;;;;5.77;1.80;;;;;;;;;;5073270;28;20633;-50
2023/10/30 11:00:28;;;;;;;4.43;1.87;;;;;;;;;;5072998;28;20218;-51
2023/10/30 11:02:55;;;;;;;4.30;2.00;;;;;;;;;;5073060;28;20222;-50
2023/10/30 11:05:29;;;;;;;3.80;1.67;;;;;;;;;;5072657;28;20225;-51
2023/10/30 11:08:00;;;;;;;3.90;1.70;;;;;;;;;;5073536;28;20201;-51
2023/10/30 11:10:31;;;;;;;7.20;2.23;;;;;;;;;;5073246;28;20206;-51
2023/10/30 11:13:03;;;;;;;6.60;1.97;;;;;;;;;;5073454;28;20205;-51
2023/10/30 11:15:34;;;;;;;5.77;2.20;;;;;;;;;;5073325;28;20273;-51
2023/10/30 11:18:21;;;;;;;6.73;2.23;;;;;;;;;;5073267;28;20681;-52
2023/10/30 11:20:48;;;;;;;3.50;1.83;;;;;;;;;;5073240;28;20248;-51
2023/10/30 11:23:34;;;;;;;4.47;1.73;;;;;;;;;;5072129;28;20192;-51
2023/10/30 11:26:00;;;;;;;3.77;1.70;;;;;;;;;;5073050;28;20541;-52
2023/10/30 11:28:27;;;;;;;4.77;2.00;;;;;;;;;;5061575;28;20206;-53
2023/10/30 11:30:55;;;;;;;6.87;2.23;;;;;;;;;;5052740;28;20235;-51
2023/10/30 11:33:22;;;;;;;5.43;1.90;;;;;;;;;;5052466;28;20746;-53
2023/10/30 11:35:52;;;;;;;7.97;2.30;;;;;;;;;;5050615;28;20244;-51
2023/10/30 11:38:18;;;;;;;4.33;1.60;;;;;;;;;;5051030;28;20256;-51
2023/10/30 11:40:59;;;;;;;8.33;2.13;;;;;;;;;;5060019;28;20231;-52
2023/10/30 11:43:29;;;;;;;5.63;2.00;;;;;;;;;;5071015;28;20731;-51
2023/10/30 11:46:02;;;;;;;4.17;1.83;;;;;;;;;;5067982;28;20206;-52
2023/10/30 11:48:28;;;;;;;3.87;1.70;;;;;;;;;;5072051;28;20280;-53
2023/10/30 11:50:54;;;;;;;8.13;2.37;;;;;;;;;;5072107;28;20640;-52
2023/10/30 11:53:21;;;;;;;4.67;2.00;;;;;;;;;;5071897;28;20211;-52
2023/10/30 11:55:48;;;;;;;4.07;1.60;;;;;;;;;;5071804;28;20687;-51
2023/10/30 11:58:15;;;;;;;5.83;2.27;;;;;;;;;;5072368;28;20224;-52
2023/10/30 12:00:42;;;;;;;4.67;1.90;;;;;;;;;;5071835;28;20777;-51
2023/10/30 12:03:09;;;;;;;4.40;1.83;;;;;;;;;;5071800;28;20287;-51
2023/10/30 12:05:35;;;;;;;5.47;2.10;;;;;;;;;;5071691;28;20230;-52
2023/10/30 12:08:01;;;;;;;5.73;2.57;;;;;;;;;;5071757;28;20291;-57
2023/10/30 12:10:27;;;;;;;5.23;2.27;;;;;;;;;;5071717;28;20197;-51
2023/10/30 12:12:54;;;;;;;6.20;2.47;;;;;;;;;;5071799;28;20262;-52
2023/10/30 12:15:20;;;;;;;4.90;2.07;;;;;;;;;;5071476;28;20529;-51
2023/10/30 12:17:46;;;;;;;4.47;1.70;;;;;;;;;;5071566;28;20650;-52
2023/10/30 12:20:14;;;;;;;5.80;1.80;;;;;;;;;;5071470;28;20209;-51
2023/10/30 12:22:42;;;;;;;5.37;2.20;;;;;;;;;;5071415;28;20292;-52
2023/10/30 12:25:08;;;;;;;4.13;1.60;;;;;;;;;;5071424;28;20858;-50
2023/10/30 12:27:34;;;;;;;4.20;2.23;;;;;;;;;;5071245;28;20187;-51
2023/10/30 12:30:09;;;;;;;3.80;1.80;;;;;;;;;;5071566;28;20201;-53
2023/10/30 12:32:35;;;;;;;6.63;1.93;;;;;;;;;;5069429;28;20214;-51
2023/10/30 12:35:07;;;;;;;6.63;2.10;;;;;;;;;;5069881;28;20193;-51
2023/10/30 12:37:37;;;;;;;4.90;1.97;;;;;;;;;;5071551;28;20318;-51
2023/10/30 12:40:04;;;;;;;7.00;2.13;;;;;;;;;;5071697;28;20293;-51
2023/10/30 12:42:32;;;;;;;3.83;1.80;;;;;;;;;;5071010;28;20283;-51
2023/10/30 12:45:02;;;;;;;3.50;1.57;;;;;;;;;;5071568;28;20227;-52
2023/10/30 12:47:28;;;;;;;6.10;2.17;;;;;;;;;;5071357;28;20248;-52
2023/10/30 12:49:54;;;;;;;4.43;1.70;;;;;;;;;;5067641;28;20709;-51
2023/10/30 12:52:20;;;;;;;3.37;1.73;;;;;;;;;;5051359;28;20704;-52
2023/10/30 12:54:48;;;;;;;4.67;1.73;;;;;;;;;;5051252;28;20325;-52
2023/10/30 12:57:14;;;;;;;4.47;1.53;;;;;;;;;;5051363;28;20199;-53
2023/10/30 12:59:40;;;;;;;2.40;1.60;;;;;;;;;;5051143;28;20206;-52
2023/10/30 13:02:06;;;;;;;4.17;1.57;;;;;;;;;;5047782;28;20294;-53
2023/10/30 13:04:33;;;;;;;4.63;1.90;;;;;;;;;;5051271;28;20563;-53
2023/10/30 13:06:59;;;;;;;4.10;1.70;;;;;;;;;;5051514;28;20199;-54
2023/10/30 13:09:25;;;;;;;5.20;1.93;;;;;;;;;;5051258;28;20298;-53
2023/10/30 13:11:53;;;;;;;5.30;1.80;;;;;;;;;;5051481;28;20338;-53
2023/10/30 13:14:19;;;;;;;4.03;1.87;;;;;;;;;;5051204;28;20281;-54
2023/10/30 13:16:45;;;;;;;3.90;1.70;;;;;;;;;;5050964;28;20725;-52
2023/10/30 13:19:11;;;;;;;3.73;1.53;;;;;;;;;;5051114;28;20199;-52
2023/10/30 13:21:38;;;;;;;2.90;1.40;;;;;;;;;;5051082;28;20203;-53
2023/10/30 13:24:04;;;;;;;3.83;1.80;;;;;;;;;;5051221;28;20229;-53
2023/10/30 13:26:30;;;;;;;2.07;1.30;;;;;;;;;;5051462;28;20201;-52
2023/10/30 13:28:57;;;;;;;5.97;2.07;;;;;;;;;;5051124;28;20204;-52
2023/10/30 13:31:23;;;;;;;3.67;1.70;;;;;;;;;;5050865;28;20269;-52
2023/10/30 13:33:49;;;;;;;5.70;2.67;;;;;;;;;;5050992;28;20196;-53
2023/10/30 13:36:16;;;;;;;5.97;2.53;;;;;;;;;;5051262;28;20673;-52
2023/10/30 13:38:42;;;;;;;3.50;1.80;;;;;;;;;;5050959;28;20255;-52
2023/10/30 13:41:08;;;;;;;4.20;1.47;;;;;;;;;;5051076;28;20328;-53
2023/10/30 13:43:34;;;;;;;3.63;1.60;;;;;;;;;;5051009;28;20328;-53
2023/10/30 13:46:01;;;;;;;3.40;1.50;;;;;;;;;;5052023;28;20283;-53
2023/10/30 13:48:28;;;;;;;2.30;1.40;;;;;;;;;;5054577;28;20197;-53
2023/10/30 13:50:54;;;;;;;2.80;1.50;;;;;;;;;;5054667;28;20279;-53
2023/10/30 13:53:20;;;;;;;4.87;1.67;;;;;;;;;;5054762;28;20603;-53
2023/10/30 13:55:46;;;;;;;4.57;1.80;;;;;;;;;;5054672;28;20251;-54
2023/10/30 13:58:12;;;;;;;3.30;1.50;;;;;;;;;;5054784;28;20621;-53
2023/10/30 14:00:38;;;;;;;3.63;1.43;;;;;;;;;;5054409;28;20194;-53
2023/10/30 14:03:06;;;;;;;4.50;1.70;;;;;;;;;;5054296;28;20602;-53
2023/10/30 14:05:32;;;;;;;4.47;1.60;;;;;;;;;;5054384;28;20322;-53
2023/10/30 14:07:58;;;;;;;4.63;1.70;;;;;;;;;;5054164;28;20259;-51
2023/10/30 14:10:24;;;;;;;1.90;1.40;;;;;;;;;;5054445;28;20206;-52
2023/10/30 14:12:50;;;;;;;4.00;1.60;;;;;;;;;;5054499;28;20196;-52
2023/10/30 14:15:16;;;;;;;3.60;1.70;;;;;;;;;;5054443;28;20201;-51
2023/10/30 14:17:42;;;;;;;3.77;1.70;;;;;;;;;;5053986;28;20671;-52
2023/10/30 14:20:10;;;;;;;3.03;1.60;;;;;;;;;;5052080;28;20683;-51
2023/10/30 14:22:36;;;;;;;3.87;1.60;;;;;;;;;;5054140;28;20189;-51
2023/10/30 14:25:02;;;;;;;3.20;1.50;;;;;;;;;;5054274;28;20823;-51
2023/10/30 14:27:28;;;;;;;2.80;1.23;;;;;;;;;;5054173;28;20543;-51
2023/10/30 14:29:54;;;;;;;2.87;1.30;;;;;;;;;;5054145;28;20192;-51
2023/10/30 14:32:20;;;;;;;2.73;1.30;;;;;;;;;;5053881;28;20210;-52
2023/10/30 14:34:46;;;;;;;3.13;1.63;;;;;;;;;;5054193;28;20193;-52
2023/10/30 14:37:13;;;;;;;2.53;1.47;;;;;;;;;;5054096;28;20266;-52
2023/10/30 14:39:41;;;;;;;4.07;1.57;;;;;;;;;;5053849;28;20212;-52